Time;durP1;ratioP1;P1;durP2;ratioP2;P2;SDS_P1;SDS_P2;PMS_P1;PMS_P2;Temp;Humidity;BMP_temperature;BMP_pressure;BME280_temperature;BME280_humidity;BME280_pressure;Samples;Min_cycle;Max_cycle;Signal;HPM_P1;HPM_P2
2022/07/27 00:00:29;;;;;;;;;;;18.80;94.60;;;;;;5007710;28;19914;-74
2022/07/27 00:02:56;;;;;;;;;;;18.80;94.80;;;;;;5008240;28;19909;-75
2022/07/27 00:05:22;;;;;;;;;;;18.70;95.10;;;;;;5010361;28;19916;-74
2022/07/27 00:07:48;;;;;;;;;;;18.70;95.20;;;;;;5010477;28;19920;-74
2022/07/27 00:10:14;;;;;;;;;;;18.70;95.40;;;;;;5015417;28;19914;-75
2022/07/27 00:12:41;;;;;;;;;;;18.60;95.60;;;;;;5014192;28;19973;-75
2022/07/27 00:15:07;;;;;;;;;;;18.70;95.80;;;;;;5005102;28;19910;-75
2022/07/27 00:17:33;;;;;;;;;;;18.60;95.90;;;;;;5015671;28;19909;-75
2022/07/27 00:19:59;;;;;;;;;;;18.50;96.20;;;;;;5002959;28;19916;-74
2022/07/27 00:22:25;;;;;;;;;;;18.50;96.20;;;;;;5012408;28;19956;-74
2022/07/27 00:24:51;;;;;;;;;;;18.60;96.40;;;;;;5002902;28;20351;-74
2022/07/27 00:27:17;;;;;;;;;;;18.50;96.40;;;;;;5007126;28;19910;-74
2022/07/27 00:29:44;;;;;;;;;;;18.60;96.40;;;;;;5008794;28;19913;-79
2022/07/27 00:32:10;;;;;;;;;;;18.60;96.30;;;;;;5012889;28;20381;-73
2022/07/27 00:34:36;;;;;;;;;;;18.60;96.40;;;;;;5001896;28;19914;-73
2022/07/27 00:37:02;;;;;;;;;;;18.50;96.40;;;;;;5010194;28;19917;-74
2022/07/27 00:39:28;;;;;;;;;;;18.50;96.60;;;;;;5013826;28;19909;-74
2022/07/27 00:41:54;;;;;;;;;;;18.50;96.70;;;;;;5014279;28;19913;-74
2022/07/27 00:44:25;;;;;;;;;;;18.40;96.80;;;;;;5007840;28;19916;-77
2022/07/27 00:46:51;;;;;;;;;;;18.40;96.90;;;;;;5014531;28;19935;-74
2022/07/27 00:49:17;;;;;;;;;;;18.40;97.00;;;;;;5006651;28;20278;-74
2022/07/27 00:51:44;;;;;;;;;;;18.30;97.20;;;;;;5010819;28;19917;-77
2022/07/27 00:54:10;;;;;;;;;;;18.20;97.40;;;;;;5005599;28;20458;-74
2022/07/27 00:56:36;;;;;;;;;;;18.20;97.60;;;;;;5012777;28;19918;-73
2022/07/27 00:59:02;;;;;;;;;;;18.20;97.70;;;;;;5005976;28;19928;-73
2022/07/27 01:01:28;;;;;;;;;;;18.20;97.80;;;;;;5013966;28;19909;-74
2022/07/27 01:03:54;;;;;;;;;;;18.20;97.80;;;;;;5009231;28;19909;-74
2022/07/27 01:06:20;;;;;;;;;;;18.20;97.90;;;;;;5013092;28;19909;-74
2022/07/27 01:08:46;;;;;;;;;;;18.10;98.00;;;;;;5004513;28;20235;-74
2022/07/27 01:11:12;;;;;;;;;;;18.20;98.10;;;;;;5009236;28;19952;-74
2022/07/27 01:13:38;;;;;;;;;;;18.10;98.20;;;;;;5006816;28;19909;-75
2022/07/27 01:16:05;;;;;;;;;;;18.10;98.30;;;;;;5011008;28;20130;-75
2022/07/27 01:18:32;;;;;;;;;;;18.00;98.50;;;;;;5005237;28;20363;-74
2022/07/27 01:20:59;;;;;;;;;;;18.10;98.60;;;;;;5012236;28;19906;-75
2022/07/27 01:23:26;;;;;;;;;;;18.10;98.60;;;;;;5008256;28;19916;-77
2022/07/27 01:25:52;;;;;;;;;;;18.10;98.80;;;;;;5012633;28;19910;-75
2022/07/27 01:28:18;;;;;;;;;;;18.10;98.60;;;;;;5012574;28;19910;-75
2022/07/27 01:30:44;;;;;;;;;;;18.10;98.70;;;;;;5009620;28;19925;-79
2022/07/27 01:33:10;;;;;;;;;;;18.00;98.70;;;;;;5006756;28;19916;-78
2022/07/27 01:35:37;;;;;;;;;;;18.00;98.90;;;;;;5009324;28;19917;-75
2022/07/27 01:38:03;;;;;;;;;;;18.00;99.00;;;;;;5007472;28;20362;-75
2022/07/27 01:40:30;;;;;;;;;;;18.00;99.10;;;;;;5012482;28;19913;-75
2022/07/27 01:42:56;;;;;;;;;;;18.00;99.00;;;;;;5013543;28;19909;-76
2022/07/27 01:45:22;;;;;;;;;;;18.10;99.20;;;;;;5008049;28;20004;-75
2022/07/27 01:47:48;;;;;;;;;;;18.10;99.10;;;;;;5007297;28;19914;-81
2022/07/27 01:50:14;;;;;;;;;;;18.10;98.60;;;;;;5007249;28;19910;-74
2022/07/27 01:52:40;;;;;;;;;;;18.10;98.70;;;;;;5012639;28;20004;-75
2022/07/27 01:55:07;;;;;;;;;;;18.10;98.60;;;;;;5001472;28;19905;-74
2022/07/27 01:57:32;;;;;;;;;;;18.10;98.70;;;;;;5010529;28;20279;-76
2022/07/27 01:59:59;;;;;;;;;;;18.10;98.80;;;;;;5005279;28;19914;-74
2022/07/27 02:02:25;;;;;;;;;;;18.10;99.10;;;;;;5012776;28;19913;-74
2022/07/27 02:04:51;;;;;;;;;;;18.10;98.90;;;;;;5013945;28;20385;-75
2022/07/27 02:07:16;;;;;;;;;;;18.10;98.80;;;;;;5010387;28;19909;-73
2022/07/27 02:09:44;;;;;;;;;;;18.20;98.60;;;;;;5008212;28;20427;-74
2022/07/27 02:14:55;;;;;;;;;;;18.20;98.40;;;;;;5007845;28;19914;-75
2022/07/27 02:17:21;;;;;;;;;;;18.30;98.30;;;;;;5008763;28;19932;-74
2022/07/27 02:19:47;;;;;;;;;;;18.20;98.20;;;;;;5007757;28;20354;-74
2022/07/27 02:22:13;;;;;;;;;;;18.30;98.10;;;;;;5009260;28;19949;-73
2022/07/27 02:24:39;;;;;;;;;;;18.30;97.90;;;;;;5006395;28;20008;-73
2022/07/27 02:27:05;;;;;;;;;;;18.30;97.90;;;;;;5008007;28;20630;-74
2022/07/27 02:29:31;;;;;;;;;;;18.30;97.90;;;;;;5004776;28;19921;-74
2022/07/27 02:31:57;;;;;;;;;;;18.30;97.80;;;;;;5008052;28;19917;-75
2022/07/27 02:34:23;;;;;;;;;;;18.40;97.80;;;;;;5003198;28;20346;-74
2022/07/27 02:36:49;;;;;;;;;;;18.40;97.90;;;;;;5009143;28;20015;-75
2022/07/27 02:39:15;;;;;;;;;;;18.30;98.00;;;;;;5007238;28;19918;-74
2022/07/27 02:41:41;;;;;;;;;;;18.30;97.90;;;;;;5001699;28;19921;-75
2022/07/27 02:44:07;;;;;;;;;;;18.30;98.00;;;;;;5008078;28;19910;-74
2022/07/27 02:46:33;;;;;;;;;;;18.30;98.10;;;;;;5011838;28;20290;-73
2022/07/27 02:48:59;;;;;;;;;;;18.20;98.20;;;;;;5011621;28;19910;-74
2022/07/27 02:51:25;;;;;;;;;;;18.20;98.30;;;;;;5012235;28;20013;-74
2022/07/27 02:53:51;;;;;;;;;;;18.20;98.40;;;;;;5006166;28;20264;-74
2022/07/27 02:56:17;;;;;;;;;;;18.20;98.50;;;;;;5009567;28;19925;-75
2022/07/27 02:58:43;;;;;;;;;;;18.20;98.50;;;;;;5011048;28;20355;-75
2022/07/27 03:01:09;;;;;;;;;;;18.20;98.60;;;;;;5010555;28;20278;-74
2022/07/27 03:03:36;;;;;;;;;;;18.10;98.60;;;;;;5011016;28;19917;-75
2022/07/27 03:06:02;;;;;;;;;;;18.10;98.80;;;;;;5006179;28;19916;-74
2022/07/27 03:08:28;;;;;;;;;;;18.10;98.90;;;;;;5006879;28;19917;-73
2022/07/27 03:10:54;;;;;;;;;;;18.10;98.70;;;;;;5009674;28;19916;-75
2022/07/27 03:13:20;;;;;;;;;;;18.10;98.80;;;;;;5007409;28;20347;-74
2022/07/27 03:15:46;;;;;;;;;;;18.10;98.80;;;;;;5005714;28;19924;-81
2022/07/27 03:18:12;;;;;;;;;;;18.10;98.80;;;;;;5008266;28;19910;-73
2022/07/27 03:20:38;;;;;;;;;;;18.10;98.90;;;;;;5009890;28;19909;-74
2022/07/27 03:23:04;;;;;;;;;;;18.00;99.00;;;;;;5004626;28;20336;-74
2022/07/27 03:25:30;;;;;;;;;;;18.10;99.00;;;;;;5006264;28;20008;-73
2022/07/27 03:27:56;;;;;;;;;;;18.00;99.10;;;;;;5009403;28;19913;-74
2022/07/27 03:30:22;;;;;;;;;;;18.00;99.10;;;;;;5005598;28;19988;-74
2022/07/27 03:32:48;;;;;;;;;;;18.00;99.10;;;;;;5009252;28;19913;-79
2022/07/27 03:35:14;;;;;;;;;;;18.00;99.10;;;;;;5009548;28;19913;-74
2022/07/27 03:37:41;;;;;;;;;;;18.00;98.90;;;;;;5012366;28;19928;-74
2022/07/27 03:40:07;;;;;;;;;;;17.90;98.80;;;;;;5013307;28;20456;-74
2022/07/27 03:42:33;;;;;;;;;;;17.90;98.80;;;;;;5012548;28;19909;-74
2022/07/27 03:44:59;;;;;;;;;;;17.90;98.80;;;;;;5013654;28;19917;-74
2022/07/27 03:47:25;;;;;;;;;;;17.90;98.90;;;;;;5012703;28;20367;-73
2022/07/27 03:49:51;;;;;;;;;;;17.90;98.60;;;;;;5014710;28;20012;-74
2022/07/27 03:52:18;;;;;;;;;;;17.90;98.50;;;;;;5010552;28;19916;-73
2022/07/27 03:54:45;;;;;;;;;;;17.80;98.50;;;;;;5008674;28;20346;-73
2022/07/27 03:57:11;;;;;;;;;;;17.80;98.30;;;;;;5007157;28;19918;-73
2022/07/27 03:59:37;;;;;;;;;;;17.80;98.10;;;;;;5012144;28;19921;-74
2022/07/27 04:02:03;;;;;;;;;;;17.80;98.00;;;;;;5011016;28;20353;-75
2022/07/27 04:04:29;;;;;;;;;;;17.80;97.80;;;;;;5012886;28;20363;-75
2022/07/27 04:06:55;;;;;;;;;;;17.80;97.60;;;;;;5008789;28;20413;-75
2022/07/27 04:09:21;;;;;;;;;;;17.90;97.70;;;;;;5012225;28;19916;-73
2022/07/27 04:11:47;;;;;;;;;;;17.80;97.50;;;;;;5009876;28;19913;-82
2022/07/27 04:14:13;;;;;;;;;;;17.80;97.40;;;;;;5009596;28;19913;-72
2022/07/27 04:16:40;;;;;;;;;;;17.80;97.60;;;;;;5012908;28;20269;-73
2022/07/27 04:19:06;;;;;;;;;;;17.80;97.50;;;;;;5009839;28;19909;-72
2022/07/27 04:21:33;;;;;;;;;;;17.80;97.50;;;;;;5009906;28;20290;-72
2022/07/27 04:24:02;;;;;;;;;;;17.80;97.60;;;;;;5010301;28;20025;-74
2022/07/27 04:26:28;;;;;;;;;;;17.70;97.70;;;;;;5009281;28;19910;-73
2022/07/27 04:28:54;;;;;;;;;;;17.80;97.70;;;;;;5009469;28;19917;-73
2022/07/27 04:31:20;;;;;;;;;;;17.80;97.70;;;;;;5009244;28;19913;-74
2022/07/27 04:33:48;;;;;;;;;;;17.80;97.70;;;;;;5005306;28;20028;-79
2022/07/27 04:36:14;;;;;;;;;;;17.80;97.90;;;;;;5009927;28;19928;-73
2022/07/27 04:38:40;;;;;;;;;;;17.80;98.00;;;;;;5011465;28;19914;-72
2022/07/27 04:41:05;;;;;;;;;;;17.70;98.00;;;;;;5012257;28;20270;-75
2022/07/27 04:43:31;;;;;;;;;;;17.70;98.10;;;;;;5010157;28;20007;-74
2022/07/27 04:45:57;;;;;;;;;;;17.80;98.10;;;;;;5007708;28;19915;-73
2022/07/27 04:48:23;;;;;;;;;;;17.70;98.20;;;;;;5010395;28;20016;-73
2022/07/27 04:50:49;;;;;;;;;;;17.80;98.30;;;;;;5013111;28;19909;-77
2022/07/27 04:53:15;;;;;;;;;;;17.70;98.40;;;;;;5010870;28;19917;-72
2022/07/27 04:55:45;;;;;;;;;;;17.80;98.50;;;;;;5013906;28;19916;-73
2022/07/27 04:58:11;;;;;;;;;;;17.80;98.60;;;;;;5010860;28;19913;-73
2022/07/27 05:00:38;;;;;;;;;;;17.80;98.60;;;;;;5009871;28;19917;-73
2022/07/27 05:03:04;;;;;;;;;;;17.80;98.70;;;;;;5008986;28;19917;-74
2022/07/27 05:05:30;;;;;;;;;;;17.80;98.70;;;;;;5013547;28;19909;-74
2022/07/27 05:07:56;;;;;;;;;;;17.80;98.80;;;;;;5008884;28;19913;-74
2022/07/27 05:10:22;;;;;;;;;;;17.90;98.70;;;;;;5004496;28;19909;-73
2022/07/27 05:12:48;;;;;;;;;;;17.90;98.60;;;;;;5012842;28;19913;-73
2022/07/27 05:15:15;;;;;;;;;;;17.90;98.50;;;;;;5003194;28;19909;-73
2022/07/27 05:17:41;;;;;;;;;;;17.90;98.60;;;;;;5006147;28;20274;-73
2022/07/27 05:20:07;;;;;;;;;;;17.90;98.80;;;;;;5009134;28;19914;-73
2022/07/27 05:22:33;;;;;;;;;;;17.90;98.70;;;;;;5009771;28;19910;-74
2022/07/27 05:24:59;;;;;;;;;;;18.00;98.80;;;;;;5006165;28;19916;-74
2022/07/27 05:27:26;;;;;;;;;;;18.00;98.70;;;;;;5009687;28;20401;-74
2022/07/27 05:29:52;;;;;;;;;;;18.00;98.70;;;;;;5010186;28;20426;-73
2022/07/27 05:32:18;;;;;;;;;;;18.10;98.30;;;;;;5008468;28;20366;-73
2022/07/27 05:34:45;;;;;;;;;;;18.20;98.20;;;;;;5008712;28;19917;-73
2022/07/27 05:37:11;;;;;;;;;;;18.20;98.10;;;;;;5010295;28;19932;-72
2022/07/27 05:39:37;;;;;;;;;;;18.20;97.90;;;;;;5008052;28;20282;-72
2022/07/27 05:42:04;;;;;;;;;;;18.20;98.00;;;;;;4995736;28;19909;-72
2022/07/27 05:44:30;;;;;;;;;;;18.20;98.30;;;;;;5008449;28;19921;-72
2022/07/27 05:46:56;;;;;;;;;;;18.30;98.30;;;;;;5011347;28;19910;-72
2022/07/27 05:49:22;;;;;;;;;;;18.40;97.70;;;;;;5014297;28;19927;-73
2022/07/27 05:51:48;;;;;;;;;;;18.40;97.90;;;;;;5020389;28;19920;-72
2022/07/27 05:54:14;;;;;;;;;;;18.40;97.90;;;;;;5014083;28;19902;-73
2022/07/27 05:56:40;;;;;;;;;;;18.40;97.70;;;;;;5005164;28;19924;-72
2022/07/27 05:59:06;;;;;;;;;;;18.40;97.30;;;;;;5010673;28;19920;-73
2022/07/27 06:01:32;;;;;;;;;;;18.40;97.50;;;;;;5013731;28;19920;-75
2022/07/27 06:03:58;;;;;;;;;;;18.50;97.60;;;;;;5006301;28;19913;-73
2022/07/27 06:09:09;;;;;;;;;;;18.40;97.40;;;;;;5010757;28;20563;-74
2022/07/27 06:11:35;;;;;;;;;;;18.40;97.70;;;;;;5006467;28;19914;-73
2022/07/27 06:14:01;;;;;;;;;;;18.40;97.60;;;;;;5006118;28;19914;-73
2022/07/27 06:16:27;;;;;;;;;;;18.40;97.40;;;;;;5010225;28;19914;-74
2022/07/27 06:18:53;;;;;;;;;;;18.50;97.40;;;;;;5019617;28;20610;-73
2022/07/27 06:21:22;;;;;;;;;;;18.50;97.10;;;;;;5021129;28;19924;-74
2022/07/27 06:23:49;;;;;;;;;;;18.90;96.10;;;;;;5012104;28;19909;-74
2022/07/27 06:26:15;;;;;;;;;;;18.70;96.20;;;;;;5020079;28;19913;-73
2022/07/27 06:28:41;;;;;;;;;;;18.80;96.60;;;;;;5017986;28;20278;-75
2022/07/27 06:31:08;;;;;;;;;;;18.70;96.50;;;;;;5002321;28;19922;-74
2022/07/27 06:33:34;;;;;;;;;;;18.70;96.70;;;;;;5004420;28;19909;-73
2022/07/27 06:36:00;;;;;;;;;;;18.70;96.80;;;;;;5006303;28;19910;-78
2022/07/27 06:38:27;;;;;;;;;;;18.70;96.40;;;;;;5004286;28;19917;-73
2022/07/27 06:40:53;;;;;;;;;;;18.60;96.60;;;;;;5007560;28;19910;-73
2022/07/27 06:43:24;;;;;;;;;;;18.60;96.70;;;;;;5002747;28;19905;-73
2022/07/27 06:45:51;;;;;;;;;;;18.70;96.50;;;;;;5006904;28;19909;-81
2022/07/27 06:48:17;;;;;;;;;;;18.80;96.30;;;;;;5008596;28;20342;-74
2022/07/27 06:50:43;;;;;;;;;;;19.00;96.10;;;;;;5015673;28;19909;-73
2022/07/27 06:53:09;;;;;;;;;;;19.00;95.60;;;;;;5005935;28;19928;-73
2022/07/27 06:55:35;;;;;;;;;;;19.00;96.00;;;;;;5010897;28;19917;-77
2022/07/27 06:58:01;;;;;;;;;;;18.90;95.80;;;;;;5008177;28;19917;-73
2022/07/27 07:00:27;;;;;;;;;;;19.10;95.40;;;;;;5009239;28;19944;-73
2022/07/27 07:02:57;;;;;;;;;;;19.00;95.50;;;;;;5008508;28;19924;-74
2022/07/27 07:05:24;;;;;;;;;;;19.30;94.90;;;;;;5008210;28;19909;-73
2022/07/27 07:07:50;;;;;;;;;;;19.30;94.60;;;;;;5011231;28;20259;-77
2022/07/27 07:10:16;;;;;;;;;;;19.30;94.70;;;;;;5024354;28;20310;-73
2022/07/27 07:12:42;;;;;;;;;;;19.40;94.70;;;;;;5005532;28;19917;-72
2022/07/27 07:15:08;;;;;;;;;;;20.40;93.00;;;;;;5007288;28;19916;-72
2022/07/27 07:17:34;;;;;;;;;;;21.60;91.00;;;;;;5011594;28;19929;-73
2022/07/27 07:20:00;;;;;;;;;;;21.10;89.10;;;;;;5009784;28;19913;-72
2022/07/27 07:22:26;;;;;;;;;;;20.50;91.10;;;;;;5008381;28;19916;-72
2022/07/27 07:24:52;;;;;;;;;;;20.20;91.00;;;;;;5009182;28;20358;-73
2022/07/27 07:27:22;;;;;;;;;;;19.80;91.50;;;;;;5007628;28;19963;-72
2022/07/27 07:29:48;;;;;;;;;;;19.70;91.80;;;;;;5004728;28;19993;-73
2022/07/27 07:32:15;;;;;;;;;;;20.20;91.10;;;;;;5009610;28;20397;-73
2022/07/27 07:34:41;;;;;;;;;;;20.40;90.20;;;;;;5008026;28;20302;-72
2022/07/27 07:37:07;;;;;;;;;;;20.40;89.50;;;;;;5002494;28;20638;-72
2022/07/27 07:39:33;;;;;;;;;;;20.90;87.30;;;;;;5012457;28;19909;-72
2022/07/27 07:41:59;;;;;;;;;;;21.20;85.40;;;;;;5003308;28;20300;-72
2022/07/27 07:44:25;;;;;;;;;;;20.90;83.90;;;;;;5004031;28;19909;-72
2022/07/27 07:46:51;;;;;;;;;;;20.70;82.40;;;;;;5008509;28;19917;-73
2022/07/27 07:49:17;;;;;;;;;;;20.20;85.20;;;;;;5009974;28;20364;-74
2022/07/27 07:51:43;;;;;;;;;;;20.30;86.20;;;;;;5009096;28;19909;-72
2022/07/27 07:54:09;;;;;;;;;;;20.20;84.80;;;;;;5009102;28;19909;-72
2022/07/27 07:56:35;;;;;;;;;;;20.10;85.20;;;;;;5009514;28;20374;-72
2022/07/27 07:59:03;;;;;;;;;;;20.20;85.60;;;;;;5002542;28;19920;-71
2022/07/27 08:01:29;;;;;;;;;;;20.40;85.70;;;;;;5007363;28;19917;-72
2022/07/27 08:03:55;;;;;;;;;;;20.50;84.40;;;;;;5008638;28;19921;-73
2022/07/27 08:06:21;;;;;;;;;;;20.80;83.40;;;;;;5003570;28;19910;-72
2022/07/27 08:08:47;;;;;;;;;;;21.30;80.90;;;;;;5011157;28;19921;-72
2022/07/27 08:11:13;;;;;;;;;;;21.80;77.60;;;;;;5009945;28;20281;-72
2022/07/27 08:13:40;;;;;;;;;;;21.70;75.40;;;;;;5007652;28;19909;-72
2022/07/27 08:16:06;;;;;;;;;;;21.30;77.70;;;;;;5006789;28;19913;-73
2022/07/27 08:18:32;;;;;;;;;;;21.20;78.90;;;;;;5007152;28;20346;-75
2022/07/27 08:20:58;;;;;;;;;;;21.50;76.90;;;;;;5009346;28;19914;-73
2022/07/27 08:23:25;;;;;;;;;;;22.40;72.70;;;;;;5006902;28;19916;-72
2022/07/27 08:25:52;;;;;;;;;;;22.70;71.00;;;;;;5011903;28;20274;-74
2022/07/27 08:28:18;;;;;;;;;;;22.60;70.90;;;;;;5008106;28;19910;-72
2022/07/27 08:30:44;;;;;;;;;;;22.70;71.00;;;;;;5014482;28;20243;-74
2022/07/27 08:33:10;;;;;;;;;;;22.40;72.00;;;;;;5007432;28;19920;-72
2022/07/27 08:35:36;;;;;;;;;;;23.00;70.10;;;;;;5007964;28;20302;-72
2022/07/27 08:38:04;;;;;;;;;;;22.70;71.00;;;;;;5008357;28;19913;-73
2022/07/27 08:40:30;;;;;;;;;;;22.50;71.40;;;;;;5012107;28;19909;-74
2022/07/27 08:42:56;;;;;;;;;;;22.80;68.60;;;;;;5008242;28;19944;-72
2022/07/27 08:45:23;;;;;;;;;;;23.20;69.30;;;;;;5013694;28;19909;-72
2022/07/27 08:47:49;;;;;;;;;;;22.90;67.40;;;;;;5008315;28;19910;-72
2022/07/27 08:50:22;;;;;;;;;;;22.10;69.80;;;;;;5009872;28;19905;-72
2022/07/27 08:52:48;;;;;;;;;;;22.00;71.60;;;;;;5012662;28;19921;-72
2022/07/27 08:55:15;;;;;;;;;;;22.30;70.50;;;;;;5012531;28;19905;-71
2022/07/27 08:57:41;;;;;;;;;;;22.80;70.70;;;;;;5009024;28;19917;-72
2022/07/27 09:00:07;;;;;;;;;;;23.90;65.70;;;;;;5015277;28;19913;-77
2022/07/27 09:02:34;;;;;;;;;;;24.40;62.70;;;;;;5010092;28;20700;-78
2022/07/27 09:05:00;;;;;;;;;;;24.60;64.10;;;;;;5004860;28;19917;-73
2022/07/27 09:07:28;;;;;;;;;;;23.90;62.60;;;;;;5012408;28;19920;-74
2022/07/27 09:09:54;;;;;;;;;;;22.90;66.10;;;;;;5008456;28;19909;-82
2022/07/27 09:12:25;;;;;;;;;;;22.50;67.60;;;;;;5010444;28;20368;-78
2022/07/27 09:15:01;;;;;;;;;;;22.00;70.10;;;;;;5011328;28;19909;-75
2022/07/27 09:17:27;;;;;;;;;;;21.50;70.80;;;;;;5020789;28;19920;-74
2022/07/27 09:19:54;;;;;;;;;;;21.40;71.70;;;;;;5022015;28;20008;-82
2022/07/27 09:22:40;;;;;;;;;;;21.60;71.80;;;;;;5012177;28;19910;-75
2022/07/27 09:25:07;;;;;;;;;;;21.80;71.30;;;;;;5012937;28;19916;-75
2022/07/27 09:27:33;;;;;;;;;;;21.70;70.60;;;;;;5011645;28;19917;-75
2022/07/27 09:30:10;;;;;;;;;;;21.60;72.00;;;;;;5021065;28;20318;-75
2022/07/27 09:32:36;;;;;;;;;;;21.90;71.00;;;;;;5019945;28;19924;-78
2022/07/27 09:35:15;;;;;;;;;;;21.90;70.90;;;;;;5013769;28;19917;-75
2022/07/27 09:37:41;;;;;;;;;;;22.40;71.00;;;;;;5020542;28;19935;-74
2022/07/27 09:40:14;;;;;;;;;;;22.90;67.50;;;;;;5022951;28;20369;-74
2022/07/27 09:42:40;;;;;;;;;;;22.70;68.10;;;;;;5020466;28;19932;-73
2022/07/27 09:45:27;;;;;;;;;;;22.50;68.80;;;;;;5008682;28;19910;-73
2022/07/27 09:48:04;;;;;;;;;;;22.20;70.30;;;;;;5008553;28;20371;-79
2022/07/27 09:50:30;;;;;;;;;;;22.40;70.00;;;;;;5010650;28;19909;-75
2022/07/27 09:53:10;;;;;;;;;;;22.60;69.00;;;;;;5005685;28;19909;-73
2022/07/27 09:55:36;;;;;;;;;;;22.10;70.40;;;;;;5009081;28;19920;-73
2022/07/27 09:58:02;;;;;;;;;;;21.70;71.60;;;;;;5007997;28;19914;-81
2022/07/27 10:00:29;;;;;;;;;;;21.80;71.80;;;;;;5010982;28;20432;-75
2022/07/27 10:02:55;;;;;;;;;;;21.90;70.80;;;;;;5008861;28;19940;-82
2022/07/27 10:05:22;;;;;;;;;;;21.80;70.60;;;;;;5013725;28;19973;-75
2022/07/27 10:07:48;;;;;;;;;;;22.10;69.90;;;;;;5001499;28;19925;-74
2022/07/27 10:10:14;;;;;;;;;;;22.30;68.40;;;;;;5012420;28;19901;-74
2022/07/27 10:12:44;;;;;;;;;;;22.00;69.00;;;;;;5009269;28;19913;-74
2022/07/27 10:15:10;;;;;;;;;;;22.10;69.80;;;;;;5006052;28;20291;-74
2022/07/27 10:17:37;;;;;;;;;;;22.40;68.30;;;;;;5007522;28;20377;-73
2022/07/27 10:20:07;;;;;;;;;;;22.30;67.50;;;;;;5010951;28;19920;-74
2022/07/27 10:22:48;;;;;;;;;;;22.50;67.50;;;;;;5011344;28;19916;-74
2022/07/27 10:25:14;;;;;;;;;;;22.60;66.60;;;;;;5009051;28;20388;-75
2022/07/27 10:27:40;;;;;;;;;;;22.40;66.80;;;;;;5008428;28;19941;-76
2022/07/27 10:30:06;;;;;;;;;;;22.60;67.30;;;;;;5007301;28;19924;-75
2022/07/27 10:32:33;;;;;;;;;;;23.00;66.30;;;;;;5011833;28;19920;-74
2022/07/27 10:35:00;;;;;;;;;;;23.40;64.10;;;;;;5007835;28;19910;-73
2022/07/27 10:37:27;;;;;;;;;;;23.40;64.60;;;;;;5010028;28;19924;-74
2022/07/27 10:40:33;;;;;;;;;;;23.20;63.80;;;;;;5013008;28;20397;-73
2022/07/27 10:42:41;;;;;;;;;;;23.20;63.30;;;;;;5007941;28;19909;-74
2022/07/27 10:45:12;;;;;;;;;;;23.00;64.20;;;;;;5007419;28;19916;-75
2022/07/27 10:47:45;;;;;;;;;;;23.20;64.10;;;;;;5012985;28;19989;-76
2022/07/27 10:50:14;;;;;;;;;;;23.40;62.70;;;;;;5007077;28;19932;-72
2022/07/27 10:52:45;;;;;;;;;;;23.30;63.10;;;;;;5007250;28;19917;-74
2022/07/27 10:55:29;;;;;;;;;;;23.50;62.40;;;;;;5008214;28;20377;-74
2022/07/27 10:57:55;;;;;;;;;;;23.50;61.80;;;;;;5010522;28;19920;-80
2022/07/27 11:00:42;;;;;;;;;;;23.70;61.40;;;;;;5009471;28;19920;-73
2022/07/27 11:03:08;;;;;;;;;;;23.70;60.60;;;;;;5003476;28;19920;-81
2022/07/27 11:05:34;;;;;;;;;;;23.90;59.90;;;;;;5018602;28;19905;-73
2022/07/27 11:08:00;;;;;;;;;;;24.10;60.00;;;;;;5018783;28;20270;-74
2022/07/27 11:10:26;;;;;;;;;;;24.50;58.90;;;;;;5018465;28;19925;-73
2022/07/27 11:12:52;;;;;;;;;;;24.30;58.40;;;;;;5014483;28;20286;-73
2022/07/27 11:15:18;;;;;;;;;;;24.20;58.70;;;;;;5005769;28;19909;-73
2022/07/27 11:17:48;;;;;;;;;;;23.60;58.50;;;;;;5005941;28;20282;-73
2022/07/27 11:20:14;;;;;;;;;;;23.30;59.40;;;;;;5003283;28;20397;-74
2022/07/27 11:22:40;;;;;;;;;;;23.90;58.70;;;;;;5009973;28;19909;-74
2022/07/27 11:25:06;;;;;;;;;;;23.80;58.50;;;;;;5006348;28;19913;-74
2022/07/27 11:27:51;;;;;;;;;;;23.80;57.90;;;;;;5007148;28;20364;-73
2022/07/27 11:30:20;;;;;;;;;;;23.30;59.00;;;;;;5001297;28;19929;-73
2022/07/27 11:32:46;;;;;;;;;;;23.50;58.00;;;;;;5002834;28;19917;-77
2022/07/27 11:35:13;;;;;;;;;;;23.30;57.70;;;;;;5002484;28;19913;-74
2022/07/27 11:37:39;;;;;;;;;;;23.40;57.30;;;;;;5001226;28;19914;-73
2022/07/27 11:40:06;;;;;;;;;;;23.40;56.90;;;;;;5009155;28;19919;-73
2022/07/27 11:42:36;;;;;;;;;;;23.60;56.90;;;;;;5009820;28;19910;-73
2022/07/27 11:45:02;;;;;;;;;;;23.70;56.60;;;;;;5005350;28;19914;-73
2022/07/27 11:47:29;;;;;;;;;;;23.70;56.30;;;;;;5008129;28;19909;-72
2022/07/27 11:50:09;;;;;;;;;;;23.70;55.60;;;;;;5009288;28;19909;-73
2022/07/27 11:52:36;;;;;;;;;;;24.00;56.30;;;;;;5002098;28;19913;-72
2022/07/27 11:55:02;;;;;;;;;;;24.30;54.50;;;;;;5012435;28;19909;-72
2022/07/27 11:57:31;;;;;;;;;;;24.40;54.30;;;;;;5007797;28;19913;-72
2022/07/27 11:59:57;;;;;;;;;;;24.40;54.20;;;;;;5015011;28;19913;-78
2022/07/27 12:02:25;;;;;;;;;;;24.40;53.80;;;;;;5013427;28;19920;-72
2022/07/27 12:04:52;;;;;;;;;;;24.60;53.30;;;;;;5008816;28;20264;-72
2022/07/27 12:07:27;;;;;;;;;;;25.00;52.80;;;;;;5009839;28;19924;-72
2022/07/27 12:09:55;;;;;;;;;;;24.60;53.40;;;;;;4993081;28;19909;-75
2022/07/27 12:12:25;;;;;;;;;;;24.60;55.10;;;;;;4997646;28;19909;-72
2022/07/27 12:15:03;;;;;;;;;;;24.90;52.40;;;;;;5008289;28;19917;-71
2022/07/27 12:17:33;;;;;;;;;;;24.60;51.90;;;;;;5005436;28;19914;-72
2022/07/27 12:20:05;;;;;;;;;;;24.10;52.50;;;;;;5014206;28;20282;-75
2022/07/27 12:22:35;;;;;;;;;;;24.00;53.40;;;;;;5012615;28;19909;-72
2022/07/27 12:25:07;;;;;;;;;;;24.20;51.60;;;;;;5003228;28;19910;-71
2022/07/27 12:27:33;;;;;;;;;;;23.90;52.50;;;;;;5012463;28;19932;-72
2022/07/27 12:29:59;;;;;;;;;;;23.90;51.90;;;;;;5011748;28;19917;-72
2022/07/27 12:32:26;;;;;;;;;;;24.10;52.10;;;;;;5010449;28;19914;-71
2022/07/27 12:34:53;;;;;;;;;;;24.30;51.50;;;;;;5005498;28;19920;-72
2022/07/27 12:37:20;;;;;;;;;;;24.30;51.00;;;;;;5010501;28;19925;-73
2022/07/27 12:39:46;;;;;;;;;;;24.40;52.00;;;;;;5006500;28;19917;-73
2022/07/27 12:42:13;;;;;;;;;;;24.50;51.20;;;;;;5012586;28;19909;-72
2022/07/27 12:44:41;;;;;;;;;;;24.70;51.20;;;;;;5011420;28;20389;-72
2022/07/27 12:49:58;;;;;;;;;;;25.00;49.70;;;;;;5006542;28;19910;-74
2022/07/27 12:52:24;;;;;;;;;;;25.20;50.60;;;;;;5009341;28;19917;-77
2022/07/27 12:54:50;;;;;;;;;;;25.70;49.40;;;;;;5011679;28;19910;-71
2022/07/27 12:57:17;;;;;;;;;;;25.40;49.40;;;;;;5009825;28;20336;-72
2022/07/27 12:59:46;;;;;;;;;;;25.30;50.50;;;;;;5013366;28;19913;-73
2022/07/27 13:02:12;;;;;;;;;;;25.50;50.20;;;;;;5009355;28;19914;-74
2022/07/27 13:04:38;;;;;;;;;;;25.60;50.00;;;;;;5010437;28;19909;-76
2022/07/27 13:07:04;;;;;;;;;;;25.90;49.90;;;;;;5005848;28;19985;-74
2022/07/27 13:09:30;;;;;;;;;;;25.50;49.20;;;;;;5011886;28;19910;-73
2022/07/27 13:11:56;;;;;;;;;;;25.70;49.50;;;;;;5013889;28;19945;-78
2022/07/27 13:14:22;;;;;;;;;;;25.50;48.50;;;;;;5008142;28;20271;-71
2022/07/27 13:16:48;;;;;;;;;;;25.20;48.60;;;;;;5012933;28;19910;-72
2022/07/27 13:19:14;;;;;;;;;;;24.80;49.40;;;;;;5008587;28;19913;-72
2022/07/27 13:21:40;;;;;;;;;;;25.00;48.90;;;;;;5007178;28;19913;-74
2022/07/27 13:24:08;;;;;;;;;;;25.10;48.80;;;;;;5010272;28;19916;-73
2022/07/27 13:26:35;;;;;;;;;;;25.20;48.50;;;;;;5010694;28;20286;-73
2022/07/27 13:29:01;;;;;;;;;;;25.30;49.10;;;;;;5009915;28;19909;-73
2022/07/27 13:31:27;;;;;;;;;;;25.60;48.90;;;;;;5009292;28;19929;-73
2022/07/27 13:33:53;;;;;;;;;;;25.50;48.40;;;;;;5008157;28;19939;-73
2022/07/27 13:36:19;;;;;;;;;;;25.50;47.80;;;;;;5009365;28;20380;-72
2022/07/27 13:38:45;;;;;;;;;;;25.30;48.20;;;;;;5006465;28;19913;-72
2022/07/27 13:41:11;;;;;;;;;;;25.20;48.10;;;;;;5011214;28;20362;-73
2022/07/27 13:43:37;;;;;;;;;;;25.30;48.10;;;;;;5006430;28;19921;-73
2022/07/27 13:46:03;;;;;;;;;;;25.60;48.30;;;;;;5020351;28;19916;-73
2022/07/27 13:48:29;;;;;;;;;;;25.10;48.40;;;;;;5018526;28;19910;-73
2022/07/27 13:50:55;;;;;;;;;;;25.40;49.60;;;;;;5017678;28;19909;-73
2022/07/27 13:53:21;;;;;;;;;;;25.70;48.40;;;;;;5021844;28;19916;-74
2022/07/27 13:55:47;;;;;;;;;;;25.80;47.30;;;;;;5018786;28;19909;-73
2022/07/27 13:58:13;;;;;;;;;;;25.60;47.50;;;;;;5020032;28;19928;-73
2022/07/27 14:00:39;;;;;;;;;;;25.30;47.40;;;;;;5019863;28;20038;-73
2022/07/27 14:03:07;;;;;;;;;;;25.40;48.00;;;;;;5018429;28;20266;-78
2022/07/27 14:05:35;;;;;;;;;;;25.60;47.30;;;;;;5015999;28;20000;-72
2022/07/27 14:08:02;;;;;;;;;;;25.60;47.70;;;;;;5018888;28;19916;-77
2022/07/27 14:10:31;;;;;;;;;;;25.60;47.60;;;;;;5020798;28;19932;-73
2022/07/27 14:13:04;;;;;;;;;;;25.80;48.00;;;;;;5018610;28;20281;-81
2022/07/27 14:15:30;;;;;;;;;;;25.60;47.00;;;;;;5016816;28;20357;-73
2022/07/27 14:17:57;;;;;;;;;;;25.40;47.30;;;;;;5015584;28;19921;-76
2022/07/27 14:20:23;;;;;;;;;;;25.50;48.40;;;;;;5012131;28;19921;-73
2022/07/27 14:22:49;;;;;;;;;;;25.40;47.70;;;;;;5013949;28;19910;-73